sensor_id;sensor_type;location;lat;lon;timestamp;P1;durP1;ratioP1;P2;durP2;ratioP2
1999;SDS011;1001;48.87406500;9.59633600;2023-06-22T00:00:34;13.20;;;7.47;;
1999;SDS011;1001;48.87406500;9.59633600;2023-06-22T00:03:00;9.37;;;8.47;;
1999;SDS011;1001;48.87406500;9.59633600;2023-06-22T00:05:27;10.27;;;7.37;;
1999;SDS011;1001;48.87406500;9.59633600;2023-06-22T00:07:53;10.23;;;8.57;;
1999;SDS011;1001;48.87406500;9.59633600;2023-06-22T00:10:20;9.77;;;8.33;;
1999;SDS011;1001;48.87406500;9.59633600;2023-06-22T00:12:46;9.50;;;7.47;;
1999;SDS011;1001;48.87406500;9.59633600;2023-06-22T00:15:12;9.23;;;7.93;;
1999;SDS011;1001;48.87406500;9.59633600;2023-06-22T00:17:40;9.70;;;8.33;;
1999;SDS011;1001;48.87406500;9.59633600;2023-06-22T00:20:07;8.83;;;8.00;;
1999;SDS011;1001;48.87406500;9.59633600;2023-06-22T00:22:35;13.40;;;9.10;;
1999;SDS011;1001;48.87406500;9.59633600;2023-06-22T00:25:04;8.83;;;7.83;;
1999;SDS011;1001;48.87406500;9.59633600;2023-06-22T00:27:30;9.43;;;7.23;;
1999;SDS011;1001;48.87406500;9.59633600;2023-06-22T00:29:57;9.43;;;7.40;;
1999;SDS011;1001;48.87406500;9.59633600;2023-06-22T00:32:23;10.83;;;8.07;;
1999;SDS011;1001;48.87406500;9.59633600;2023-06-22T00:34:51;8.80;;;7.90;;
1999;SDS011;1001;48.87406500;9.59633600;2023-06-22T00:37:17;9.40;;;7.77;;
1999;SDS011;1001;48.87406500;9.59633600;2023-06-22T00:39:44;9.70;;;8.27;;
1999;SDS011;1001;48.87406500;9.59633600;2023-06-22T00:42:10;10.30;;;8.00;;
1999;SDS011;1001;48.87406500;9.59633600;2023-06-22T00:44:37;14.00;;;8.63;;
1999;SDS011;1001;48.87406500;9.59633600;2023-06-22T00:47:03;9.63;;;7.70;;
1999;SDS011;1001;48.87406500;9.59633600;2023-06-22T00:49:31;8.40;;;7.53;;
1999;SDS011;1001;48.87406500;9.59633600;2023-06-22T00:51:59;10.27;;;8.40;;
1999;SDS011;1001;48.87406500;9.59633600;2023-06-22T00:54:25;12.47;;;9.40;;
1999;SDS011;1001;48.87406500;9.59633600;2023-06-22T00:56:53;9.90;;;8.90;;
1999;SDS011;1001;48.87406500;9.59633600;2023-06-22T00:59:21;8.80;;;7.93;;
1999;SDS011;1001;48.87406500;9.59633600;2023-06-22T01:01:47;12.37;;;7.53;;
1999;SDS011;1001;48.87406500;9.59633600;2023-06-22T01:04:14;11.20;;;9.60;;
1999;SDS011;1001;48.87406500;9.59633600;2023-06-22T01:06:47;11.90;;;8.60;;
1999;SDS011;1001;48.87406500;9.59633600;2023-06-22T01:09:19;10.60;;;9.47;;
1999;SDS011;1001;48.87406500;9.59633600;2023-06-22T01:11:47;8.47;;;7.67;;
1999;SDS011;1001;48.87406500;9.59633600;2023-06-22T01:14:19;12.37;;;8.07;;
1999;SDS011;1001;48.87406500;9.59633600;2023-06-22T01:16:47;7.83;;;7.03;;
1999;SDS011;1001;48.87406500;9.59633600;2023-06-22T01:19:21;12.57;;;8.20;;
1999;SDS011;1001;48.87406500;9.59633600;2023-06-22T01:21:52;10.60;;;7.67;;
1999;SDS011;1001;48.87406500;9.59633600;2023-06-22T01:24:22;9.10;;;8.20;;
1999;SDS011;1001;48.87406500;9.59633600;2023-06-22T01:26:53;8.60;;;6.70;;
1999;SDS011;1001;48.87406500;9.59633600;2023-06-22T01:29:21;11.33;;;7.77;;
1999;SDS011;1001;48.87406500;9.59633600;2023-06-22T01:31:49;10.73;;;8.50;;
1999;SDS011;1001;48.87406500;9.59633600;2023-06-22T01:34:16;10.73;;;8.30;;
1999;SDS011;1001;48.87406500;9.59633600;2023-06-22T01:36:43;8.70;;;7.80;;
1999;SDS011;1001;48.87406500;9.59633600;2023-06-22T01:39:10;9.43;;;7.50;;
1999;SDS011;1001;48.87406500;9.59633600;2023-06-22T01:41:37;14.47;;;8.43;;
1999;SDS011;1001;48.87406500;9.59633600;2023-06-22T01:44:05;12.47;;;8.73;;
1999;SDS011;1001;48.87406500;9.59633600;2023-06-22T01:46:33;8.23;;;7.43;;
1999;SDS011;1001;48.87406500;9.59633600;2023-06-22T01:49:00;14.70;;;7.70;;
1999;SDS011;1001;48.87406500;9.59633600;2023-06-22T01:51:27;9.10;;;7.97;;
1999;SDS011;1001;48.87406500;9.59633600;2023-06-22T01:53:53;9.10;;;7.70;;
1999;SDS011;1001;48.87406500;9.59633600;2023-06-22T01:56:20;9.13;;;7.73;;
1999;SDS011;1001;48.87406500;9.59633600;2023-06-22T01:58:48;10.30;;;6.93;;
1999;SDS011;1001;48.87406500;9.59633600;2023-06-22T02:01:17;12.40;;;7.80;;
1999;SDS011;1001;48.87406500;9.59633600;2023-06-22T02:03:47;9.60;;;7.73;;
1999;SDS011;1001;48.87406500;9.59633600;2023-06-22T02:06:23;8.83;;;7.93;;
1999;SDS011;1001;48.87406500;9.59633600;2023-06-22T02:08:51;10.37;;;7.93;;
1999;SDS011;1001;48.87406500;9.59633600;2023-06-22T02:11:20;11.13;;;7.50;;
1999;SDS011;1001;48.87406500;9.59633600;2023-06-22T02:13:47;9.60;;;7.83;;
1999;SDS011;1001;48.87406500;9.59633600;2023-06-22T02:16:14;10.47;;;7.73;;
1999;SDS011;1001;48.87406500;9.59633600;2023-06-22T02:18:46;10.03;;;8.27;;
1999;SDS011;1001;48.87406500;9.59633600;2023-06-22T02:21:16;9.90;;;8.47;;
1999;SDS011;1001;48.87406500;9.59633600;2023-06-22T02:23:42;10.20;;;8.50;;
1999;SDS011;1001;48.87406500;9.59633600;2023-06-22T02:26:08;8.77;;;7.97;;
1999;SDS011;1001;48.87406500;9.59633600;2023-06-22T02:28:35;8.83;;;7.87;;
1999;SDS011;1001;48.87406500;9.59633600;2023-06-22T02:31:01;11.30;;;7.00;;
1999;SDS011;1001;48.87406500;9.59633600;2023-06-22T02:33:28;11.33;;;7.77;;
1999;SDS011;1001;48.87406500;9.59633600;2023-06-22T02:35:55;10.83;;;8.60;;
1999;SDS011;1001;48.87406500;9.59633600;2023-06-22T02:38:22;8.73;;;7.67;;
1999;SDS011;1001;48.87406500;9.59633600;2023-06-22T02:40:49;8.67;;;7.70;;
1999;SDS011;1001;48.87406500;9.59633600;2023-06-22T02:43:15;8.30;;;7.37;;
1999;SDS011;1001;48.87406500;9.59633600;2023-06-22T02:45:42;9.93;;;8.00;;
1999;SDS011;1001;48.87406500;9.59633600;2023-06-22T02:48:08;9.13;;;8.23;;
1999;SDS011;1001;48.87406500;9.59633600;2023-06-22T02:50:36;10.20;;;8.40;;
1999;SDS011;1001;48.87406500;9.59633600;2023-06-22T02:53:03;10.57;;;8.90;;
1999;SDS011;1001;48.87406500;9.59633600;2023-06-22T02:55:30;10.47;;;9.00;;
1999;SDS011;1001;48.87406500;9.59633600;2023-06-22T02:57:56;9.50;;;8.20;;
1999;SDS011;1001;48.87406500;9.59633600;2023-06-22T03:00:24;13.10;;;9.30;;
1999;SDS011;1001;48.87406500;9.59633600;2023-06-22T03:02:55;10.73;;;7.97;;
1999;SDS011;1001;48.87406500;9.59633600;2023-06-22T03:05:22;9.47;;;8.47;;
1999;SDS011;1001;48.87406500;9.59633600;2023-06-22T03:07:48;9.73;;;8.30;;
1999;SDS011;1001;48.87406500;9.59633600;2023-06-22T03:10:16;10.73;;;9.63;;
1999;SDS011;1001;48.87406500;9.59633600;2023-06-22T03:12:43;11.17;;;8.93;;
1999;SDS011;1001;48.87406500;9.59633600;2023-06-22T03:15:10;10.63;;;7.80;;
1999;SDS011;1001;48.87406500;9.59633600;2023-06-22T03:17:36;12.87;;;9.63;;
1999;SDS011;1001;48.87406500;9.59633600;2023-06-22T03:20:04;10.67;;;9.57;;
1999;SDS011;1001;48.87406500;9.59633600;2023-06-22T03:22:34;15.10;;;11.80;;
1999;SDS011;1001;48.87406500;9.59633600;2023-06-22T03:25:00;12.43;;;11.17;;
1999;SDS011;1001;48.87406500;9.59633600;2023-06-22T03:27:28;13.70;;;12.00;;
1999;SDS011;1001;48.87406500;9.59633600;2023-06-22T03:29:54;12.00;;;10.30;;
1999;SDS011;1001;48.87406500;9.59633600;2023-06-22T03:32:20;11.70;;;9.83;;
1999;SDS011;1001;48.87406500;9.59633600;2023-06-22T03:34:47;11.77;;;10.10;;
1999;SDS011;1001;48.87406500;9.59633600;2023-06-22T03:37:14;14.37;;;10.37;;
1999;SDS011;1001;48.87406500;9.59633600;2023-06-22T03:39:41;16.20;;;12.50;;
1999;SDS011;1001;48.87406500;9.59633600;2023-06-22T03:42:07;15.70;;;12.00;;
1999;SDS011;1001;48.87406500;9.59633600;2023-06-22T03:44:35;16.90;;;12.87;;
1999;SDS011;1001;48.87406500;9.59633600;2023-06-22T03:47:01;15.80;;;13.50;;
1999;SDS011;1001;48.87406500;9.59633600;2023-06-22T03:49:28;17.23;;;15.00;;
1999;SDS011;1001;48.87406500;9.59633600;2023-06-22T03:51:54;14.10;;;11.60;;
1999;SDS011;1001;48.87406500;9.59633600;2023-06-22T03:54:21;15.43;;;12.70;;
1999;SDS011;1001;48.87406500;9.59633600;2023-06-22T03:56:47;19.17;;;12.00;;
1999;SDS011;1001;48.87406500;9.59633600;2023-06-22T03:59:13;13.43;;;11.60;;
1999;SDS011;1001;48.87406500;9.59633600;2023-06-22T04:01:41;17.77;;;15.10;;
1999;SDS011;1001;48.87406500;9.59633600;2023-06-22T04:04:08;17.37;;;12.80;;
1999;SDS011;1001;48.87406500;9.59633600;2023-06-22T04:06:34;16.37;;;12.90;;
1999;SDS011;1001;48.87406500;9.59633600;2023-06-22T04:09:00;16.83;;;13.70;;
1999;SDS011;1001;48.87406500;9.59633600;2023-06-22T04:11:27;16.13;;;12.47;;
1999;SDS011;1001;48.87406500;9.59633600;2023-06-22T04:13:53;12.90;;;11.20;;
1999;SDS011;1001;48.87406500;9.59633600;2023-06-22T04:16:20;15.00;;;12.80;;
1999;SDS011;1001;48.87406500;9.59633600;2023-06-22T04:18:48;17.53;;;13.50;;
1999;SDS011;1001;48.87406500;9.59633600;2023-06-22T04:21:14;14.63;;;11.57;;
1999;SDS011;1001;48.87406500;9.59633600;2023-06-22T04:23:41;14.30;;;11.87;;
1999;SDS011;1001;48.87406500;9.59633600;2023-06-22T04:26:08;17.23;;;11.83;;
1999;SDS011;1001;48.87406500;9.59633600;2023-06-22T04:28:34;17.17;;;11.03;;
1999;SDS011;1001;48.87406500;9.59633600;2023-06-22T04:31:01;17.47;;;13.10;;
1999;SDS011;1001;48.87406500;9.59633600;2023-06-22T04:33:27;13.40;;;11.63;;
1999;SDS011;1001;48.87406500;9.59633600;2023-06-22T04:35:55;15.40;;;11.00;;
1999;SDS011;1001;48.87406500;9.59633600;2023-06-22T04:38:22;15.27;;;11.43;;
1999;SDS011;1001;48.87406500;9.59633600;2023-06-22T04:40:49;14.43;;;10.83;;
1999;SDS011;1001;48.87406500;9.59633600;2023-06-22T04:43:15;15.97;;;11.00;;
1999;SDS011;1001;48.87406500;9.59633600;2023-06-22T04:45:42;14.60;;;11.50;;
1999;SDS011;1001;48.87406500;9.59633600;2023-06-22T04:48:08;9.90;;;8.90;;
1999;SDS011;1001;48.87406500;9.59633600;2023-06-22T04:50:35;15.33;;;10.27;;
1999;SDS011;1001;48.87406500;9.59633600;2023-06-22T04:53:04;12.10;;;10.83;;
1999;SDS011;1001;48.87406500;9.59633600;2023-06-22T04:55:30;12.10;;;10.07;;
1999;SDS011;1001;48.87406500;9.59633600;2023-06-22T04:57:57;13.90;;;11.43;;
1999;SDS011;1001;48.87406500;9.59633600;2023-06-22T05:00:29;10.37;;;8.97;;
1999;SDS011;1001;48.87406500;9.59633600;2023-06-22T05:02:56;8.50;;;7.70;;
1999;SDS011;1001;48.87406500;9.59633600;2023-06-22T05:05:23;14.20;;;10.20;;
1999;SDS011;1001;48.87406500;9.59633600;2023-06-22T05:07:50;8.90;;;7.80;;
1999;SDS011;1001;48.87406500;9.59633600;2023-06-22T05:10:19;11.87;;;9.20;;
1999;SDS011;1001;48.87406500;9.59633600;2023-06-22T05:12:45;13.90;;;9.53;;
1999;SDS011;1001;48.87406500;9.59633600;2023-06-22T05:15:12;13.30;;;8.70;;
1999;SDS011;1001;48.87406500;9.59633600;2023-06-22T05:17:38;12.63;;;8.57;;
1999;SDS011;1001;48.87406500;9.59633600;2023-06-22T05:20:08;10.70;;;9.17;;
1999;SDS011;1001;48.87406500;9.59633600;2023-06-22T05:22:35;12.80;;;8.27;;
1999;SDS011;1001;48.87406500;9.59633600;2023-06-22T05:25:01;7.73;;;7.03;;
1999;SDS011;1001;48.87406500;9.59633600;2023-06-22T05:27:29;8.47;;;7.60;;
1999;SDS011;1001;48.87406500;9.59633600;2023-06-22T05:29:55;15.53;;;8.07;;
1999;SDS011;1001;48.87406500;9.59633600;2023-06-22T05:32:22;10.20;;;7.67;;
1999;SDS011;1001;48.87406500;9.59633600;2023-06-22T05:34:48;9.77;;;7.43;;
1999;SDS011;1001;48.87406500;9.59633600;2023-06-22T05:37:14;7.17;;;6.47;;
1999;SDS011;1001;48.87406500;9.59633600;2023-06-22T05:39:41;8.03;;;7.23;;
1999;SDS011;1001;48.87406500;9.59633600;2023-06-22T05:42:07;9.50;;;6.90;;
1999;SDS011;1001;48.87406500;9.59633600;2023-06-22T05:44:35;8.50;;;6.30;;
1999;SDS011;1001;48.87406500;9.59633600;2023-06-22T05:47:02;10.10;;;6.90;;
1999;SDS011;1001;48.87406500;9.59633600;2023-06-22T05:49:29;6.13;;;5.53;;
1999;SDS011;1001;48.87406500;9.59633600;2023-06-22T05:51:57;7.43;;;6.13;;
1999;SDS011;1001;48.87406500;9.59633600;2023-06-22T05:54:24;7.77;;;5.60;;
1999;SDS011;1001;48.87406500;9.59633600;2023-06-22T05:56:50;7.57;;;6.70;;
1999;SDS011;1001;48.87406500;9.59633600;2023-06-22T05:59:17;8.63;;;6.80;;
1999;SDS011;1001;48.87406500;9.59633600;2023-06-22T06:01:44;7.37;;;6.67;;
1999;SDS011;1001;48.87406500;9.59633600;2023-06-22T06:04:14;7.07;;;5.20;;
1999;SDS011;1001;48.87406500;9.59633600;2023-06-22T06:06:41;7.23;;;6.63;;
1999;SDS011;1001;48.87406500;9.59633600;2023-06-22T06:09:07;7.37;;;6.27;;
1999;SDS011;1001;48.87406500;9.59633600;2023-06-22T06:11:34;7.43;;;6.17;;
1999;SDS011;1001;48.87406500;9.59633600;2023-06-22T06:14:00;10.53;;;5.63;;
1999;SDS011;1001;48.87406500;9.59633600;2023-06-22T06:16:26;5.60;;;5.10;;
1999;SDS011;1001;48.87406500;9.59633600;2023-06-22T06:18:54;6.93;;;5.30;;
1999;SDS011;1001;48.87406500;9.59633600;2023-06-22T06:21:21;6.80;;;5.73;;
1999;SDS011;1001;48.87406500;9.59633600;2023-06-22T06:23:47;6.13;;;5.53;;
1999;SDS011;1001;48.87406500;9.59633600;2023-06-22T06:26:13;4.73;;;4.33;;
1999;SDS011;1001;48.87406500;9.59633600;2023-06-22T06:28:41;6.77;;;5.63;;
1999;SDS011;1001;48.87406500;9.59633600;2023-06-22T06:31:08;5.73;;;4.97;;
1999;SDS011;1001;48.87406500;9.59633600;2023-06-22T06:33:34;5.30;;;4.80;;
1999;SDS011;1001;48.87406500;9.59633600;2023-06-22T06:36:02;7.60;;;5.70;;
1999;SDS011;1001;48.87406500;9.59633600;2023-06-22T06:38:28;7.73;;;5.27;;
1999;SDS011;1001;48.87406500;9.59633600;2023-06-22T06:40:55;6.30;;;5.70;;
1999;SDS011;1001;48.87406500;9.59633600;2023-06-22T06:43:21;6.00;;;4.90;;
1999;SDS011;1001;48.87406500;9.59633600;2023-06-22T06:45:48;5.57;;;4.40;;
1999;SDS011;1001;48.87406500;9.59633600;2023-06-22T06:48:14;6.20;;;4.70;;
1999;SDS011;1001;48.87406500;9.59633600;2023-06-22T06:50:40;8.80;;;5.67;;
1999;SDS011;1001;48.87406500;9.59633600;2023-06-22T06:53:10;7.53;;;5.10;;
1999;SDS011;1001;48.87406500;9.59633600;2023-06-22T06:55:36;5.23;;;4.53;;
1999;SDS011;1001;48.87406500;9.59633600;2023-06-22T06:58:03;8.47;;;4.80;;
1999;SDS011;1001;48.87406500;9.59633600;2023-06-22T07:00:32;6.67;;;5.00;;
1999;SDS011;1001;48.87406500;9.59633600;2023-06-22T07:02:59;5.40;;;4.90;;
1999;SDS011;1001;48.87406500;9.59633600;2023-06-22T07:05:25;9.20;;;5.97;;
1999;SDS011;1001;48.87406500;9.59633600;2023-06-22T07:07:51;5.40;;;4.50;;
1999;SDS011;1001;48.87406500;9.59633600;2023-06-22T07:10:19;5.50;;;4.90;;
1999;SDS011;1001;48.87406500;9.59633600;2023-06-22T07:12:46;5.60;;;4.93;;
1999;SDS011;1001;48.87406500;9.59633600;2023-06-22T07:15:13;7.60;;;5.17;;
1999;SDS011;1001;48.87406500;9.59633600;2023-06-22T07:17:39;9.30;;;4.73;;
1999;SDS011;1001;48.87406500;9.59633600;2023-06-22T07:20:06;6.63;;;5.20;;
1999;SDS011;1001;48.87406500;9.59633600;2023-06-22T07:22:35;7.03;;;4.47;;
1999;SDS011;1001;48.87406500;9.59633600;2023-06-22T07:25:02;7.50;;;5.33;;
1999;SDS011;1001;48.87406500;9.59633600;2023-06-22T07:27:35;5.37;;;4.50;;
1999;SDS011;1001;48.87406500;9.59633600;2023-06-22T07:30:03;5.63;;;5.00;;
1999;SDS011;1001;48.87406500;9.59633600;2023-06-22T07:32:29;5.83;;;4.37;;
1999;SDS011;1001;48.87406500;9.59633600;2023-06-22T07:34:56;5.63;;;4.43;;
1999;SDS011;1001;48.87406500;9.59633600;2023-06-22T07:37:22;5.47;;;4.33;;
1999;SDS011;1001;48.87406500;9.59633600;2023-06-22T07:39:49;4.93;;;4.43;;
1999;SDS011;1001;48.87406500;9.59633600;2023-06-22T07:42:18;7.10;;;3.83;;
1999;SDS011;1001;48.87406500;9.59633600;2023-06-22T07:44:46;7.67;;;4.00;;
1999;SDS011;1001;48.87406500;9.59633600;2023-06-22T07:47:13;5.20;;;4.70;;
1999;SDS011;1001;48.87406500;9.59633600;2023-06-22T07:49:39;5.10;;;4.60;;
1999;SDS011;1001;48.87406500;9.59633600;2023-06-22T07:52:05;6.43;;;4.60;;
1999;SDS011;1001;48.87406500;9.59633600;2023-06-22T07:54:32;6.03;;;4.50;;
1999;SDS011;1001;48.87406500;9.59633600;2023-06-22T07:56:58;5.93;;;4.90;;
1999;SDS011;1001;48.87406500;9.59633600;2023-06-22T07:59:25;6.20;;;4.37;;
1999;SDS011;1001;48.87406500;9.59633600;2023-06-22T08:01:53;6.90;;;4.30;;
1999;SDS011;1001;48.87406500;9.59633600;2023-06-22T08:04:19;5.80;;;4.53;;
1999;SDS011;1001;48.87406500;9.59633600;2023-06-22T08:06:45;8.27;;;4.40;;
1999;SDS011;1001;48.87406500;9.59633600;2023-06-22T08:09:12;5.93;;;4.20;;
1999;SDS011;1001;48.87406500;9.59633600;2023-06-22T08:11:38;6.10;;;3.60;;
1999;SDS011;1001;48.87406500;9.59633600;2023-06-22T08:14:05;7.77;;;3.90;;
1999;SDS011;1001;48.87406500;9.59633600;2023-06-22T08:16:31;5.00;;;4.17;;
1999;SDS011;1001;48.87406500;9.59633600;2023-06-22T08:18:59;5.10;;;3.80;;
1999;SDS011;1001;48.87406500;9.59633600;2023-06-22T08:21:25;9.00;;;4.57;;
1999;SDS011;1001;48.87406500;9.59633600;2023-06-22T08:23:51;6.80;;;4.37;;
1999;SDS011;1001;48.87406500;9.59633600;2023-06-22T08:26:18;5.80;;;4.00;;
1999;SDS011;1001;48.87406500;9.59633600;2023-06-22T08:28:45;5.23;;;4.23;;
1999;SDS011;1001;48.87406500;9.59633600;2023-06-22T08:31:11;9.73;;;4.30;;
1999;SDS011;1001;48.87406500;9.59633600;2023-06-22T08:33:39;5.90;;;3.40;;
1999;SDS011;1001;48.87406500;9.59633600;2023-06-22T08:36:07;10.57;;;5.20;;
1999;SDS011;1001;48.87406500;9.59633600;2023-06-22T08:38:36;6.27;;;4.23;;
1999;SDS011;1001;48.87406500;9.59633600;2023-06-22T08:41:02;10.13;;;4.33;;
1999;SDS011;1001;48.87406500;9.59633600;2023-06-22T08:43:28;7.10;;;3.73;;
1999;SDS011;1001;48.87406500;9.59633600;2023-06-22T08:45:55;10.30;;;4.10;;
1999;SDS011;1001;48.87406500;9.59633600;2023-06-22T08:48:21;6.83;;;3.93;;
1999;SDS011;1001;48.87406500;9.59633600;2023-06-22T08:50:48;9.40;;;4.33;;
1999;SDS011;1001;48.87406500;9.59633600;2023-06-22T08:53:15;10.00;;;4.30;;
1999;SDS011;1001;48.87406500;9.59633600;2023-06-22T08:55:42;9.13;;;4.60;;
1999;SDS011;1001;48.87406500;9.59633600;2023-06-22T08:58:08;11.87;;;4.53;;
1999;SDS011;1001;48.87406500;9.59633600;2023-06-22T09:00:35;12.03;;;4.53;;
1999;SDS011;1001;48.87406500;9.59633600;2023-06-22T09:03:02;7.77;;;4.23;;
1999;SDS011;1001;48.87406500;9.59633600;2023-06-22T09:05:29;9.30;;;5.00;;
1999;SDS011;1001;48.87406500;9.59633600;2023-06-22T09:07:56;8.10;;;4.10;;
1999;SDS011;1001;48.87406500;9.59633600;2023-06-22T09:10:25;7.23;;;4.50;;
1999;SDS011;1001;48.87406500;9.59633600;2023-06-22T09:12:51;9.00;;;4.37;;
1999;SDS011;1001;48.87406500;9.59633600;2023-06-22T09:15:17;5.97;;;4.10;;
1999;SDS011;1001;48.87406500;9.59633600;2023-06-22T09:17:44;7.70;;;4.90;;
1999;SDS011;1001;48.87406500;9.59633600;2023-06-22T09:20:11;9.50;;;5.50;;
1999;SDS011;1001;48.87406500;9.59633600;2023-06-22T09:22:37;6.43;;;4.77;;
1999;SDS011;1001;48.87406500;9.59633600;2023-06-22T09:25:04;8.77;;;4.90;;
1999;SDS011;1001;48.87406500;9.59633600;2023-06-22T09:27:32;7.80;;;4.50;;
1999;SDS011;1001;48.87406500;9.59633600;2023-06-22T09:29:58;10.80;;;4.67;;
1999;SDS011;1001;48.87406500;9.59633600;2023-06-22T09:32:25;11.07;;;4.77;;
1999;SDS011;1001;48.87406500;9.59633600;2023-06-22T09:34:51;10.00;;;4.50;;
1999;SDS011;1001;48.87406500;9.59633600;2023-06-22T09:37:18;8.03;;;4.60;;
1999;SDS011;1001;48.87406500;9.59633600;2023-06-22T09:39:44;7.37;;;5.00;;
1999;SDS011;1001;48.87406500;9.59633600;2023-06-22T09:42:10;8.37;;;4.13;;
1999;SDS011;1001;48.87406500;9.59633600;2023-06-22T09:44:39;8.80;;;4.77;;
1999;SDS011;1001;48.87406500;9.59633600;2023-06-22T09:47:06;11.23;;;4.80;;
1999;SDS011;1001;48.87406500;9.59633600;2023-06-22T09:49:33;5.17;;;4.40;;
1999;SDS011;1001;48.87406500;9.59633600;2023-06-22T09:51:59;7.67;;;4.80;;
1999;SDS011;1001;48.87406500;9.59633600;2023-06-22T09:54:25;7.23;;;4.87;;
1999;SDS011;1001;48.87406500;9.59633600;2023-06-22T09:56:52;7.33;;;4.13;;
1999;SDS011;1001;48.87406500;9.59633600;2023-06-22T09:59:18;9.10;;;4.90;;
1999;SDS011;1001;48.87406500;9.59633600;2023-06-22T10:01:46;7.87;;;4.90;;
1999;SDS011;1001;48.87406500;9.59633600;2023-06-22T10:04:12;9.80;;;4.97;;
1999;SDS011;1001;48.87406500;9.59633600;2023-06-22T10:06:39;8.57;;;5.00;;
1999;SDS011;1001;48.87406500;9.59633600;2023-06-22T10:09:05;8.73;;;5.50;;
1999;SDS011;1001;48.87406500;9.59633600;2023-06-22T10:11:32;10.03;;;5.23;;
1999;SDS011;1001;48.87406500;9.59633600;2023-06-22T10:14:00;8.60;;;5.23;;
1999;SDS011;1001;48.87406500;9.59633600;2023-06-22T10:16:30;7.97;;;4.77;;
1999;SDS011;1001;48.87406500;9.59633600;2023-06-22T10:18:58;9.03;;;5.10;;
1999;SDS011;1001;48.87406500;9.59633600;2023-06-22T10:21:24;9.63;;;4.77;;
1999;SDS011;1001;48.87406500;9.59633600;2023-06-22T10:23:52;9.53;;;4.53;;
1999;SDS011;1001;48.87406500;9.59633600;2023-06-22T10:26:18;9.83;;;5.27;;
1999;SDS011;1001;48.87406500;9.59633600;2023-06-22T10:28:45;10.57;;;4.60;;
1999;SDS011;1001;48.87406500;9.59633600;2023-06-22T10:31:11;7.80;;;5.20;;
1999;SDS011;1001;48.87406500;9.59633600;2023-06-22T10:33:38;5.97;;;5.03;;
1999;SDS011;1001;48.87406500;9.59633600;2023-06-22T10:36:07;7.00;;;4.70;;
1999;SDS011;1001;48.87406500;9.59633600;2023-06-22T10:38:34;11.47;;;5.57;;
1999;SDS011;1001;48.87406500;9.59633600;2023-06-22T10:41:00;8.00;;;5.40;;
1999;SDS011;1001;48.87406500;9.59633600;2023-06-22T10:43:27;10.70;;;5.20;;
1999;SDS011;1001;48.87406500;9.59633600;2023-06-22T10:45:53;8.60;;;5.23;;
1999;SDS011;1001;48.87406500;9.59633600;2023-06-22T10:48:20;5.97;;;4.70;;
1999;SDS011;1001;48.87406500;9.59633600;2023-06-22T10:50:46;8.17;;;5.03;;
1999;SDS011;1001;48.87406500;9.59633600;2023-06-22T10:53:14;8.13;;;4.73;;
1999;SDS011;1001;48.87406500;9.59633600;2023-06-22T10:55:41;8.03;;;5.03;;
1999;SDS011;1001;48.87406500;9.59633600;2023-06-22T10:58:07;8.63;;;5.30;;
1999;SDS011;1001;48.87406500;9.59633600;2023-06-22T11:00:33;11.00;;;5.17;;
1999;SDS011;1001;48.87406500;9.59633600;2023-06-22T11:03:00;7.23;;;5.30;;
1999;SDS011;1001;48.87406500;9.59633600;2023-06-22T11:05:26;6.70;;;4.97;;
1999;SDS011;1001;48.87406500;9.59633600;2023-06-22T11:07:53;8.57;;;4.73;;
1999;SDS011;1001;48.87406500;9.59633600;2023-06-22T11:10:21;7.63;;;5.47;;
1999;SDS011;1001;48.87406500;9.59633600;2023-06-22T11:12:47;8.00;;;5.13;;
1999;SDS011;1001;48.87406500;9.59633600;2023-06-22T11:15:13;17.40;;;5.50;;
1999;SDS011;1001;48.87406500;9.59633600;2023-06-22T11:17:40;9.93;;;5.50;;
1999;SDS011;1001;48.87406500;9.59633600;2023-06-22T11:20:07;17.60;;;6.50;;
1999;SDS011;1001;48.87406500;9.59633600;2023-06-22T11:22:36;7.77;;;5.07;;
1999;SDS011;1001;48.87406500;9.59633600;2023-06-22T11:25:02;8.63;;;5.17;;
1999;SDS011;1001;48.87406500;9.59633600;2023-06-22T11:27:30;6.67;;;4.70;;
1999;SDS011;1001;48.87406500;9.59633600;2023-06-22T11:29:57;10.47;;;5.53;;
1999;SDS011;1001;48.87406500;9.59633600;2023-06-22T11:32:23;7.67;;;4.97;;
1999;SDS011;1001;48.87406500;9.59633600;2023-06-22T11:34:50;16.00;;;6.80;;
1999;SDS011;1001;48.87406500;9.59633600;2023-06-22T11:37:16;6.73;;;4.77;;
1999;SDS011;1001;48.87406500;9.59633600;2023-06-22T11:39:42;10.40;;;5.43;;
1999;SDS011;1001;48.87406500;9.59633600;2023-06-22T11:42:09;6.70;;;5.10;;
1999;SDS011;1001;48.87406500;9.59633600;2023-06-22T11:44:37;8.60;;;4.70;;
1999;SDS011;1001;48.87406500;9.59633600;2023-06-22T11:47:04;9.07;;;5.40;;
1999;SDS011;1001;48.87406500;9.59633600;2023-06-22T11:49:30;15.73;;;5.53;;
1999;SDS011;1001;48.87406500;9.59633600;2023-06-22T11:51:57;13.73;;;5.30;;
1999;SDS011;1001;48.87406500;9.59633600;2023-06-22T11:54:23;7.87;;;5.13;;
1999;SDS011;1001;48.87406500;9.59633600;2023-06-22T11:56:49;13.50;;;5.40;;
1999;SDS011;1001;48.87406500;9.59633600;2023-06-22T11:59:16;12.00;;;5.30;;
1999;SDS011;1001;48.87406500;9.59633600;2023-06-22T12:01:44;11.00;;;5.90;;
1999;SDS011;1001;48.87406500;9.59633600;2023-06-22T12:04:10;8.57;;;4.97;;
1999;SDS011;1001;48.87406500;9.59633600;2023-06-22T12:06:37;9.90;;;5.33;;
1999;SDS011;1001;48.87406500;9.59633600;2023-06-22T12:09:06;8.37;;;5.20;;
1999;SDS011;1001;48.87406500;9.59633600;2023-06-22T12:11:33;12.83;;;5.53;;
1999;SDS011;1001;48.87406500;9.59633600;2023-06-22T12:13:59;9.07;;;6.07;;
1999;SDS011;1001;48.87406500;9.59633600;2023-06-22T12:16:27;12.50;;;6.27;;
1999;SDS011;1001;48.87406500;9.59633600;2023-06-22T12:18:55;10.77;;;6.37;;
1999;SDS011;1001;48.87406500;9.59633600;2023-06-22T12:21:21;12.30;;;5.87;;
1999;SDS011;1001;48.87406500;9.59633600;2023-06-22T12:23:48;11.03;;;6.17;;
1999;SDS011;1001;48.87406500;9.59633600;2023-06-22T12:26:14;11.90;;;6.83;;
1999;SDS011;1001;48.87406500;9.59633600;2023-06-22T12:28:41;12.47;;;6.47;;
1999;SDS011;1001;48.87406500;9.59633600;2023-06-22T12:31:07;10.80;;;5.93;;
1999;SDS011;1001;48.87406500;9.59633600;2023-06-22T12:33:34;12.93;;;6.07;;
1999;SDS011;1001;48.87406500;9.59633600;2023-06-22T12:36:01;11.87;;;7.33;;
1999;SDS011;1001;48.87406500;9.59633600;2023-06-22T12:38:30;15.53;;;7.17;;
1999;SDS011;1001;48.87406500;9.59633600;2023-06-22T12:40:56;11.73;;;6.40;;
1999;SDS011;1001;48.87406500;9.59633600;2023-06-22T12:43:22;10.23;;;6.10;;
1999;SDS011;1001;48.87406500;9.59633600;2023-06-22T12:45:49;10.17;;;6.00;;
1999;SDS011;1001;48.87406500;9.59633600;2023-06-22T12:48:15;9.20;;;5.90;;
1999;SDS011;1001;48.87406500;9.59633600;2023-06-22T12:50:42;7.10;;;5.37;;
1999;SDS011;1001;48.87406500;9.59633600;2023-06-22T12:53:09;8.10;;;5.77;;
1999;SDS011;1001;48.87406500;9.59633600;2023-06-22T12:55:36;10.50;;;6.20;;
1999;SDS011;1001;48.87406500;9.59633600;2023-06-22T12:58:02;9.50;;;6.27;;
1999;SDS011;1001;48.87406500;9.59633600;2023-06-22T13:00:29;14.03;;;6.07;;
1999;SDS011;1001;48.87406500;9.59633600;2023-06-22T13:02:55;7.47;;;6.20;;